createdAt,value
2022-11-27T00:00:08.092Z,1024.82
2022-11-27T00:01:03.898Z,1024.65
2022-11-27T00:02:27.761Z,1024.58
2022-11-27T00:03:12.606Z,1024.51
2022-11-27T00:04:03.783Z,1024.53
2022-11-27T00:05:12.209Z,1024.64
2022-11-27T00:06:31.227Z,1024.57
2022-11-27T00:07:09.341Z,1024.54
2022-11-27T00:08:07.411Z,1024.51
2022-11-27T00:09:21.036Z,1024.49
2022-11-27T00:10:11.584Z,1024.46
2022-11-27T00:11:18.498Z,1024.41
2022-11-27T00:11:55.736Z,1024.42
2022-11-27T00:12:58.668Z,1024.40
2022-11-27T00:14:21.783Z,1024.36
2022-11-27T00:15:22.971Z,1024.44
2022-11-27T00:16:07.795Z,1024.48
2022-11-27T00:17:23.425Z,1024.49
2022-11-27T00:18:20.581Z,1024.43
2022-11-27T00:19:17.985Z,1024.51
2022-11-27T00:19:59.799Z,1024.55
2022-11-27T00:21:18.381Z,1024.57
2022-11-27T00:22:12.837Z,1024.54
2022-11-27T00:23:03.646Z,1024.55
2022-11-27T00:23:58.920Z,1024.54
2022-11-27T00:25:07.958Z,1024.51
2022-11-27T00:26:37.467Z,1024.64
2022-11-27T00:29:19.192Z,1024.41
2022-11-27T00:30:29.189Z,1024.50
2022-11-27T00:31:27.723Z,1024.53
2022-11-27T00:32:31.552Z,1024.56
2022-11-27T00:33:35.668Z,1024.60
2022-11-27T00:34:40.717Z,1024.53
2022-11-27T00:35:38.572Z,1024.54
2022-11-27T00:41:55.248Z,1024.42
2022-11-27T00:42:55.280Z,1024.49
2022-11-27T00:43:56.362Z,1024.52
2022-11-27T00:44:56.169Z,1024.59
2022-11-27T00:45:55.849Z,1024.65
2022-11-27T00:47:02.105Z,1024.60
2022-11-27T00:47:54.707Z,1024.69
2022-11-27T00:48:57.852Z,1024.67
2022-11-27T00:49:56.072Z,1024.73
2022-11-27T00:50:54.886Z,1024.70
2022-11-27T00:51:55.268Z,1024.71
2022-11-27T00:52:55.339Z,1024.72
2022-11-27T00:53:55.128Z,1024.68
2022-11-27T00:54:54.879Z,1024.78
2022-11-27T00:55:54.610Z,1024.77
2022-11-27T00:56:54.985Z,1024.82
2022-11-27T00:57:54.674Z,1024.83
2022-11-27T00:58:54.973Z,1024.88
2022-11-27T00:59:54.792Z,1024.77
2022-11-27T01:00:54.789Z,1024.76
2022-11-27T01:01:55.146Z,1024.78
2022-11-27T01:02:55.256Z,1024.73
2022-11-27T01:03:55.209Z,1024.74
2022-11-27T01:04:54.490Z,1024.80
2022-11-27T01:05:54.693Z,1024.82
2022-11-27T01:06:55.528Z,1024.86
2022-11-27T01:07:54.927Z,1024.94
2022-11-27T01:08:55.575Z,1024.89
2022-11-27T01:10:17.708Z,1024.85
2022-11-27T01:11:13.673Z,1024.91
2022-11-27T01:12:10.999Z,1024.81
2022-11-27T01:13:05.124Z,1024.79
2022-11-27T01:13:59.557Z,1024.85
2022-11-27T01:15:05.689Z,1024.83
2022-11-27T01:16:07.836Z,1024.85
2022-11-27T01:17:05.132Z,1024.83
2022-11-27T01:17:58.613Z,1024.80
2022-11-27T01:18:58.857Z,1024.81
2022-11-27T01:22:25.797Z,1024.61
2022-11-27T01:22:55.114Z,1024.65
2022-11-27T01:23:57.366Z,1024.64
2022-11-27T01:24:53.993Z,1024.73
2022-11-27T01:25:51.796Z,1024.79
2022-11-27T01:26:54.908Z,1024.83
2022-11-27T01:27:53.762Z,1024.81
2022-11-27T01:28:52.639Z,1024.77
2022-11-27T01:29:48.333Z,1024.72
2022-11-27T01:31:02.581Z,1024.67
2022-11-27T01:31:52.415Z,1024.66
2022-11-27T01:33:10.717Z,1024.66
2022-11-27T01:33:56.271Z,1024.65
2022-11-27T01:34:52.448Z,1024.62
2022-11-27T01:35:56.055Z,1024.62
2022-11-27T01:36:53.065Z,1024.66
2022-11-27T01:37:51.524Z,1024.65
2022-11-27T01:39:06.883Z,1024.69
2022-11-27T01:40:06.088Z,1024.75
2022-11-27T01:41:01.178Z,1024.68
2022-11-27T01:42:02.963Z,1024.64
2022-11-27T01:42:52.466Z,1024.58
2022-11-27T01:43:55.657Z,1024.52
2022-11-27T01:45:16.887Z,1024.56
2022-11-27T01:46:05.675Z,1024.50
2022-11-27T01:46:59.048Z,1024.52
2022-11-27T01:48:01.154Z,1024.49
2022-11-27T01:48:59.903Z,1024.48
2022-11-27T01:49:58.923Z,1024.48
2022-11-27T01:50:59.587Z,1024.42
2022-11-27T01:51:56.099Z,1024.40
2022-11-27T01:52:55.676Z,1024.45
2022-11-27T01:54:10.250Z,1024.44
2022-11-27T01:54:55.552Z,1024.46
2022-11-27T01:56:21.395Z,1024.49
2022-11-27T01:57:21.783Z,1024.47
2022-11-27T01:57:56.270Z,1024.47
2022-11-27T01:59:11.923Z,1024.47
2022-11-27T02:00:03.256Z,1024.46
2022-11-27T02:01:11.506Z,1024.40
2022-11-27T02:02:14.100Z,1024.39
2022-11-27T02:03:07.907Z,1024.35
2022-11-27T02:03:58.011Z,1024.37
2022-11-27T02:05:10.035Z,1024.34
2022-11-27T02:06:12.125Z,1024.31
2022-11-27T02:06:56.189Z,1024.33
2022-11-27T02:08:24.835Z,1024.35
2022-11-27T02:09:18.421Z,1024.32
2022-11-27T02:09:58.762Z,1024.32
2022-11-27T02:11:30.021Z,1024.26
2022-11-27T02:11:56.638Z,1024.26
2022-11-27T02:13:09.359Z,1024.27
2022-11-27T02:14:00.501Z,1024.22
2022-11-27T02:30:34.543Z,1024.17
2022-11-27T02:31:26.310Z,1024.27
2022-11-27T03:17:11.771Z,1024.16
2022-11-27T03:18:04.770Z,1024.22
2022-11-27T03:19:30.125Z,1024.38
2022-11-27T03:20:19.189Z,1024.40
2022-11-27T03:21:22.385Z,1024.41
2022-11-27T03:22:28.874Z,1024.44
2022-11-27T03:23:11.595Z,1024.39
2022-11-27T03:24:03.597Z,1024.38
2022-11-27T03:25:12.339Z,1024.37
2022-11-27T03:26:06.779Z,1024.33
2022-11-27T03:27:07.180Z,1024.32
2022-11-27T03:28:15.810Z,1024.32
2022-11-27T03:29:12.965Z,1024.34
2022-11-27T03:30:08.959Z,1024.36
2022-11-27T03:31:13.929Z,1024.38
2022-11-27T03:32:10.822Z,1024.41
2022-11-27T03:33:26.901Z,1024.42
2022-11-27T03:34:12.304Z,1024.42
2022-11-27T03:35:08.067Z,1024.44
2022-11-27T03:36:08.563Z,1024.44
2022-11-27T03:37:06.313Z,1024.44
2022-11-27T03:38:08.192Z,1024.42
2022-11-27T03:39:10.144Z,1024.43
2022-11-27T03:40:17.663Z,1024.45
2022-11-27T03:41:14.267Z,1024.38
2022-11-27T03:42:13.102Z,1024.36
2022-11-27T03:43:13.588Z,1024.35
2022-11-27T03:44:51.907Z,1024.30
2022-11-27T03:45:20.020Z,1024.32
2022-11-27T03:46:16.675Z,1024.33
2022-11-27T03:47:07.746Z,1024.34
2022-11-27T03:48:09.124Z,1024.36
2022-11-27T03:49:09.720Z,1024.42
2022-11-27T03:50:08.487Z,1024.39
2022-11-27T03:51:09.692Z,1024.40
2022-11-27T03:52:16.490Z,1024.41
2022-11-27T03:53:13.763Z,1024.48
2022-11-27T03:54:14.891Z,1024.42
2022-11-27T03:55:20.914Z,1024.42
2022-11-27T03:56:10.229Z,1024.41
2022-11-27T03:57:14.841Z,1024.39
2022-11-27T03:58:09.360Z,1024.39
2022-11-27T03:59:21.253Z,1024.38
2022-11-27T04:00:11.135Z,1024.35
2022-11-27T04:01:25.277Z,1024.32
2022-11-27T04:02:10.887Z,1024.33
2022-11-27T04:03:11.281Z,1024.28
2022-11-27T04:04:14.759Z,1024.28
2022-11-27T04:35:37.977Z,1023.89
2022-11-27T04:36:23.077Z,1024.04
2022-11-27T04:37:23.040Z,1024.05
2022-11-27T04:38:23.027Z,1024.12
2022-11-27T04:39:22.995Z,1024.12
2022-11-27T04:40:23.069Z,1024.08
2022-11-27T04:41:24.972Z,1024.11
2022-11-27T04:42:24.522Z,1024.10
2022-11-27T04:43:23.621Z,1024.05
2022-11-27T04:44:23.220Z,1024.03
2022-11-27T04:45:23.439Z,1024.04
2022-11-27T04:46:23.456Z,1024.02
2022-11-27T04:47:23.361Z,1024.02
2022-11-27T04:48:25.761Z,1024.05
2022-11-27T04:49:24.052Z,1024.05
2022-11-27T04:50:23.689Z,1024.07
2022-11-27T04:51:23.835Z,1024.09
2022-11-27T04:52:23.335Z,1024.07
2022-11-27T04:53:23.602Z,1024.04
2022-11-27T04:54:23.352Z,1024.03
2022-11-27T04:55:23.071Z,1024.02
2022-11-27T04:56:23.236Z,1023.97
2022-11-27T04:57:22.838Z,1023.96
2022-11-27T04:58:23.373Z,1023.94
2022-11-27T04:59:23.242Z,1023.94
2022-11-27T05:00:23.171Z,1023.87
2022-11-27T05:01:22.937Z,1023.86
2022-11-27T05:02:22.999Z,1023.86
2022-11-27T05:03:23.099Z,1023.89
2022-11-27T05:04:22.998Z,1023.85
2022-11-27T05:05:23.314Z,1023.84
2022-11-27T05:06:23.223Z,1023.82
2022-11-27T05:07:22.735Z,1023.72
2022-11-27T05:08:23.093Z,1023.73
2022-11-27T05:09:23.030Z,1023.64
2022-11-27T05:10:22.799Z,1023.59
2022-11-27T05:11:23.741Z,1023.61
2022-11-27T05:12:23.585Z,1023.60
2022-11-27T05:13:23.503Z,1023.51
2022-11-27T05:14:22.527Z,1023.50
2022-11-27T05:15:22.854Z,1023.52
2022-11-27T05:16:22.580Z,1023.59
2022-11-27T05:17:22.778Z,1023.57
2022-11-27T05:18:22.639Z,1023.60
2022-11-27T05:19:23.614Z,1023.56
2022-11-27T05:20:22.638Z,1023.49
2022-11-27T05:21:22.670Z,1023.48
2022-11-27T05:22:22.483Z,1023.48
2022-11-27T05:23:22.645Z,1023.44
2022-11-27T05:24:22.550Z,1023.43
2022-11-27T05:25:22.357Z,1023.39
2022-11-27T05:26:22.578Z,1023.38
2022-11-27T05:27:22.691Z,1023.36
2022-11-27T05:28:26.375Z,1023.34
2022-11-27T05:29:22.370Z,1023.33
2022-11-27T05:30:22.560Z,1023.37
2022-11-27T05:31:22.430Z,1023.37
2022-11-27T05:32:23.605Z,1023.35
2022-11-27T05:33:22.272Z,1023.33
2022-11-27T05:34:22.460Z,1023.39
2022-11-27T05:35:22.374Z,1023.37
2022-11-27T05:36:22.394Z,1023.35
2022-11-27T05:37:22.589Z,1023.36
2022-11-27T05:38:24.023Z,1023.33
2022-11-27T05:39:23.023Z,1023.32
2022-11-27T05:40:22.300Z,1023.34
2022-11-27T05:41:22.836Z,1023.33
2022-11-27T05:42:22.469Z,1023.32
2022-11-27T05:43:23.329Z,1023.38
2022-11-27T05:44:22.246Z,1023.38
2022-11-27T05:45:22.171Z,1023.37
2022-11-27T05:46:22.876Z,1023.38
2022-11-27T05:47:22.279Z,1023.41
2022-11-27T05:48:22.162Z,1023.42
2022-11-27T05:49:22.247Z,1023.39
2022-11-27T05:50:22.275Z,1023.37
2022-11-27T05:51:22.095Z,1023.40
2022-11-27T05:52:23.470Z,1023.37
2022-11-27T05:53:22.300Z,1023.40
2022-11-27T05:54:22.053Z,1023.27
2022-11-27T05:55:22.242Z,1023.21
2022-11-27T05:56:22.213Z,1023.24
2022-11-27T05:57:22.184Z,1023.24
2022-11-27T05:58:22.580Z,1023.20
2022-11-27T05:59:22.147Z,1023.28
2022-11-27T06:00:24.916Z,1023.31
2022-11-27T06:01:22.496Z,1023.30
2022-11-27T06:02:26.500Z,1023.29
2022-11-27T06:03:23.098Z,1023.29
2022-11-27T06:04:22.061Z,1023.25
2022-11-27T06:05:22.832Z,1023.28
2022-11-27T06:06:22.086Z,1023.32
2022-11-27T06:07:21.976Z,1023.32
2022-11-27T06:08:22.145Z,1023.35
2022-11-27T06:09:22.297Z,1023.32
2022-11-27T06:10:21.938Z,1023.33
2022-11-27T06:11:22.079Z,1023.28
2022-11-27T06:12:22.041Z,1023.27
2022-11-27T06:13:21.791Z,1023.27
2022-11-27T06:14:22.797Z,1023.29
2022-11-27T06:15:22.183Z,1023.34
2022-11-27T06:16:21.800Z,1023.37
2022-11-27T06:17:22.069Z,1023.36
2022-11-27T06:18:21.788Z,1023.41
2022-11-27T06:19:21.712Z,1023.43
2022-11-27T06:20:21.797Z,1023.41
2022-11-27T06:21:21.925Z,1023.39
2022-11-27T06:22:21.753Z,1023.38
2022-11-27T06:23:21.631Z,1023.30
2022-11-27T06:24:21.753Z,1023.25
2022-11-27T06:25:21.711Z,1023.25
2022-11-27T06:26:21.810Z,1023.26
2022-11-27T06:27:21.585Z,1023.26
2022-11-27T06:28:22.878Z,1023.26
2022-11-27T06:29:22.563Z,1023.27
2022-11-27T06:30:21.706Z,1023.35
2022-11-27T06:31:22.032Z,1023.30
2022-11-27T06:32:21.941Z,1023.33
2022-11-27T06:33:21.610Z,1023.36
2022-11-27T06:34:21.992Z,1023.32
2022-11-27T06:35:21.635Z,1023.34
2022-11-27T06:36:21.740Z,1023.28
2022-11-27T06:37:22.207Z,1023.27
2022-11-27T06:38:21.675Z,1023.28
2022-11-27T06:39:21.668Z,1023.28
2022-11-27T06:40:21.548Z,1023.25
2022-11-27T06:41:21.548Z,1023.24
2022-11-27T06:42:21.755Z,1023.21
2022-11-27T06:43:21.706Z,1023.19
2022-11-27T06:44:22.300Z,1023.18
2022-11-27T06:45:22.826Z,1023.17
2022-11-27T06:46:21.668Z,1023.08
2022-11-27T06:47:21.551Z,1023.14
2022-11-27T06:48:21.440Z,1023.10
2022-11-27T06:49:21.352Z,1023.11
2022-11-27T06:50:21.971Z,1023.10
2022-11-27T06:51:21.748Z,1023.06
2022-11-27T06:52:21.623Z,1023.11
2022-11-27T06:53:43.985Z,1023.03
2022-11-27T07:33:18.776Z,1022.98
2022-11-27T07:34:14.071Z,1022.97
2022-11-27T07:35:08.226Z,1022.98
2022-11-27T07:36:07.260Z,1022.99
2022-11-27T07:37:07.457Z,1023.00
2022-11-27T07:38:07.241Z,1023.00
2022-11-27T07:39:07.743Z,1023.00
2022-11-27T07:40:07.248Z,1022.95
2022-11-27T07:41:09.211Z,1022.95
2022-11-27T07:42:36.787Z,1022.89
2022-11-27T07:43:08.199Z,1022.82
2022-11-27T07:44:07.420Z,1022.82
2022-11-27T07:45:07.118Z,1022.81
2022-11-27T07:46:07.377Z,1022.80
2022-11-27T07:47:08.388Z,1022.86
2022-11-27T07:48:07.314Z,1022.82
2022-11-27T07:49:08.547Z,1022.82
2022-11-27T07:50:07.143Z,1022.85
2022-11-27T07:51:07.120Z,1022.91
2022-11-27T07:52:07.158Z,1022.88
2022-11-27T07:53:06.956Z,1022.87
2022-11-27T07:54:07.552Z,1022.90
2022-11-27T07:55:07.176Z,1022.90
2022-11-27T07:56:07.004Z,1022.84
2022-11-27T07:57:08.226Z,1022.83
2022-11-27T07:58:06.975Z,1022.87
2022-11-27T07:59:07.164Z,1022.83
2022-11-27T08:00:07.242Z,1022.82
2022-11-27T08:01:07.173Z,1022.90
2022-11-27T08:02:07.424Z,1022.92
2022-11-27T08:03:07.013Z,1022.91
2022-11-27T08:04:06.931Z,1022.92
2022-11-27T08:05:12.342Z,1022.83
2022-11-27T08:06:08.249Z,1022.82
2022-11-27T08:07:07.336Z,1022.77
2022-11-27T08:08:07.140Z,1022.73
2022-11-27T08:09:06.953Z,1022.70
2022-11-27T08:10:07.036Z,1022.75
2022-11-27T08:11:06.865Z,1022.75
2022-11-27T08:12:07.155Z,1022.69
2022-11-27T08:13:06.879Z,1022.76
2022-11-27T08:14:06.894Z,1022.71
2022-11-27T08:15:06.910Z,1022.69
2022-11-27T08:16:06.905Z,1022.65
2022-11-27T08:17:06.900Z,1022.65
2022-11-27T08:18:06.839Z,1022.57
2022-11-27T08:19:06.717Z,1022.60
2022-11-27T08:20:06.927Z,1022.57
2022-11-27T08:21:07.456Z,1022.63
2022-11-27T08:22:06.722Z,1022.57
2022-11-27T08:23:06.788Z,1022.50
2022-11-27T08:24:06.692Z,1022.51
2022-11-27T08:25:08.011Z,1022.50
2022-11-27T08:26:06.658Z,1022.53
2022-11-27T08:27:06.671Z,1022.63
2022-11-27T08:28:06.890Z,1022.66
2022-11-27T08:29:06.786Z,1022.67
2022-11-27T08:30:07.737Z,1022.61
2022-11-27T08:31:06.916Z,1022.62
2022-11-27T08:32:06.588Z,1022.58
2022-11-27T08:33:06.732Z,1022.47
2022-11-27T08:34:06.618Z,1022.47
2022-11-27T08:35:06.638Z,1022.46
2022-11-27T08:36:09.025Z,1022.46
2022-11-27T08:37:06.542Z,1022.49
2022-11-27T08:38:06.561Z,1022.52
2022-11-27T08:39:06.584Z,1022.50
2022-11-27T08:40:07.269Z,1022.47
2022-11-27T08:41:07.410Z,1022.45
2022-11-27T08:42:06.373Z,1022.45
2022-11-27T08:43:13.759Z,1022.38
2022-11-27T08:44:15.204Z,1022.45
2022-11-27T08:49:31.646Z,1022.25
2022-11-27T08:50:21.741Z,1022.39
2022-11-27T08:51:27.624Z,1022.35
2022-11-27T08:52:38.480Z,1022.40
2022-11-27T08:53:17.858Z,1022.35
2022-11-27T08:54:21.659Z,1022.38
2022-11-27T08:55:23.794Z,1022.40
2022-11-27T08:56:55.834Z,1022.41
2022-11-27T08:57:30.030Z,1022.41
2022-11-27T08:58:21.688Z,1022.36
2022-11-27T08:59:21.949Z,1022.35
2022-11-27T09:00:26.361Z,1022.35
2022-11-27T09:01:29.885Z,1022.27
2022-11-27T09:02:20.556Z,1022.28
2022-11-27T09:03:14.666Z,1022.15
2022-11-27T09:04:20.358Z,1022.16
2022-11-27T09:05:18.811Z,1022.17
2022-11-27T09:06:42.357Z,1022.13
2022-11-27T09:07:48.370Z,1022.15
2022-11-27T09:08:19.599Z,1022.08
2022-11-27T09:09:49.578Z,1022.06
2022-11-27T09:10:21.198Z,1022.04
2022-11-27T09:11:24.831Z,1022.04
2022-11-27T09:12:22.686Z,1022.07
2022-11-27T09:13:39.630Z,1022.06
2022-11-27T09:16:38.165Z,1022.00
2022-11-27T09:22:19.010Z,1021.91
2022-11-27T09:22:59.592Z,1022.03
2022-11-27T09:23:54.521Z,1022.04
2022-11-27T09:25:05.496Z,1022.10
2022-11-27T09:26:00.019Z,1022.07
2022-11-27T09:26:55.819Z,1022.08
2022-11-27T09:28:14.386Z,1022.06
2022-11-27T09:28:58.683Z,1022.03
2022-11-27T09:34:12.038Z,1021.93
2022-11-27T09:35:11.814Z,1021.98
2022-11-27T09:36:13.165Z,1022.02
2022-11-27T09:37:21.048Z,1022.09
2022-11-27T09:38:37.555Z,1022.16
2022-11-27T09:39:13.693Z,1022.16
2022-11-27T09:40:11.278Z,1022.16
2022-11-27T09:41:19.569Z,1022.16
2022-11-27T09:42:42.706Z,1022.08
2022-11-27T09:43:14.671Z,1022.13
2022-11-27T09:44:15.615Z,1022.11
2022-11-27T09:45:13.272Z,1022.08
2022-11-27T09:46:17.966Z,1022.05
2022-11-27T09:47:17.917Z,1022.02
2022-11-27T09:48:11.934Z,1021.91
2022-11-27T09:49:18.663Z,1021.84
2022-11-27T09:50:26.317Z,1021.83
2022-11-27T09:53:11.500Z,1021.60
2022-11-27T09:53:59.980Z,1021.68
2022-11-27T09:54:58.256Z,1021.66
2022-11-27T10:10:38.702Z,1021.33
2022-11-27T10:11:48.235Z,1021.41
2022-11-27T10:12:49.423Z,1021.43
2022-11-27T10:13:51.286Z,1021.45
2022-11-27T10:14:39.446Z,1021.36
2022-11-27T10:22:29.789Z,1021.16
2022-11-27T10:23:15.030Z,1021.25
2022-11-27T10:24:02.130Z,1021.24
2022-11-27T10:25:18.536Z,1021.28
2022-11-27T10:25:53.454Z,1021.31
2022-11-27T10:26:53.002Z,1021.24
2022-11-27T10:28:00.592Z,1021.25
2022-11-27T10:29:05.115Z,1021.25
2022-11-27T10:29:53.944Z,1021.21
2022-11-27T10:30:56.044Z,1021.28
2022-11-27T10:32:46.925Z,1021.27
2022-11-27T10:33:01.368Z,1021.39
2022-11-27T10:33:52.683Z,1021.39
2022-11-27T10:34:52.190Z,1021.40
2022-11-27T10:36:09.246Z,1021.46
2022-11-27T10:37:14.989Z,1021.43
2022-11-27T10:41:05.031Z,1021.35
2022-11-27T10:41:53.261Z,1021.43
2022-11-27T10:42:52.073Z,1021.46
2022-11-27T10:44:00.418Z,1021.46
2022-11-27T10:45:07.808Z,1021.41
2022-11-27T10:46:08.141Z,1021.33
2022-11-27T10:46:42.974Z,1021.40
2022-11-27T10:47:46.321Z,1021.31
2022-11-27T10:48:42.456Z,1021.30
2022-11-27T11:22:09.132Z,1021.00
2022-11-27T11:22:48.116Z,1021.12
2022-11-27T11:23:22.427Z,1021.04
2022-11-27T11:24:49.515Z,1021.12
2022-11-27T11:25:25.818Z,1021.14
2022-11-27T11:26:31.693Z,1021.06
2022-11-27T12:22:19.209Z,1019.94
2022-11-27T12:22:58.892Z,1020.08
2022-11-27T12:23:53.449Z,1020.09
2022-11-27T12:24:53.903Z,1020.08
2022-11-27T12:25:54.898Z,1020.12
2022-11-27T12:26:54.709Z,1020.09
2022-11-27T12:27:53.155Z,1020.11
2022-11-27T12:29:09.726Z,1020.13
2022-11-27T12:30:01.691Z,1020.09
2022-11-27T12:31:19.799Z,1020.11
2022-11-27T12:32:09.164Z,1020.14
2022-11-27T12:33:03.250Z,1020.10
2022-11-27T12:34:23.751Z,1020.11
2022-11-27T12:35:02.040Z,1020.04
2022-11-27T12:36:06.309Z,1020.09
2022-11-27T12:37:28.202Z,1020.05
2022-11-27T12:38:30.158Z,1020.04
2022-11-27T12:39:12.241Z,1020.05
2022-11-27T12:40:25.281Z,1020.03
2022-11-27T13:03:18.332Z,1019.63
2022-11-27T13:04:20.121Z,1019.69
2022-11-27T13:05:15.887Z,1019.66
2022-11-27T13:06:16.481Z,1019.67
2022-11-27T13:07:24.272Z,1019.70
2022-11-27T13:08:17.440Z,1019.69
2022-11-27T13:09:14.476Z,1019.71
2022-11-27T13:10:19.516Z,1019.66
2022-11-27T13:11:37.835Z,1019.62
2022-11-27T13:12:22.050Z,1019.61
2022-11-27T13:13:14.905Z,1019.60
2022-11-27T13:14:16.273Z,1019.62
2022-11-27T13:15:23.280Z,1019.56
2022-11-27T13:16:13.726Z,1019.58
2022-11-27T13:17:15.400Z,1019.54
2022-11-27T13:18:14.469Z,1019.53
2022-11-27T13:19:12.858Z,1019.56
2022-11-27T13:20:11.874Z,1019.47
2022-11-27T13:21:18.870Z,1019.46
2022-11-27T13:22:15.040Z,1019.45
2022-11-27T13:23:14.097Z,1019.45
2022-11-27T13:24:17.568Z,1019.48
2022-11-27T13:25:15.111Z,1019.46
2022-11-27T13:26:13.464Z,1019.43
2022-11-27T13:27:14.963Z,1019.44
2022-11-27T13:28:19.380Z,1019.38
2022-11-27T13:29:27.705Z,1019.43
2022-11-27T13:30:28.561Z,1019.44
2022-11-27T13:31:11.193Z,1019.44
2022-11-27T13:32:17.600Z,1019.46
2022-11-27T13:33:22.455Z,1019.44
2022-11-27T13:34:14.578Z,1019.45
2022-11-27T13:35:22.223Z,1019.48
2022-11-27T13:36:13.763Z,1019.43
2022-11-27T13:37:17.500Z,1019.42
2022-11-27T13:38:13.009Z,1019.41
2022-11-27T13:39:17.329Z,1019.34
2022-11-27T13:40:17.624Z,1019.35
2022-11-27T13:41:13.985Z,1019.30
2022-11-27T13:42:17.047Z,1019.34
2022-11-27T13:43:12.754Z,1019.34
2022-11-27T13:44:36.820Z,1019.34
2022-11-27T13:45:12.114Z,1019.31
2022-11-27T13:46:14.268Z,1019.29
2022-11-27T13:47:11.224Z,1019.28
2022-11-27T13:48:15.418Z,1019.29
2022-11-27T13:49:17.632Z,1019.27
2022-11-27T13:50:29.700Z,1019.28
2022-11-27T13:51:17.457Z,1019.29
2022-11-27T13:52:13.345Z,1019.21
2022-11-27T13:53:16.640Z,1019.20
2022-11-27T13:54:25.911Z,1019.24
2022-11-27T13:58:18.195Z,1019.03
2022-11-27T13:59:14.714Z,1019.16
2022-11-27T14:00:17.144Z,1019.13
2022-11-27T14:01:17.302Z,1019.11
2022-11-27T14:02:33.439Z,1019.09
2022-11-27T14:05:46.722Z,1018.94
2022-11-27T14:07:21.878Z,1018.93
2022-11-27T14:07:53.137Z,1018.98
2022-11-27T14:08:48.742Z,1018.97
2022-11-27T14:09:49.279Z,1018.92
2022-11-27T14:10:45.402Z,1018.93
2022-11-27T14:11:52.890Z,1018.94
2022-11-27T14:12:46.058Z,1018.97
2022-11-27T14:13:49.334Z,1018.95
2022-11-27T14:14:46.496Z,1018.92
2022-11-27T14:15:44.203Z,1018.91
2022-11-27T14:16:44.285Z,1018.91
2022-11-27T14:17:43.202Z,1018.84
2022-11-27T14:18:42.212Z,1018.84
2022-11-27T14:19:44.199Z,1018.84
2022-11-27T14:20:45.201Z,1018.82
2022-11-27T14:21:43.951Z,1018.83
2022-11-27T14:23:09.814Z,1018.85
2022-11-27T14:23:43.339Z,1018.84
2022-11-27T14:24:43.773Z,1018.84
2022-11-27T14:25:45.199Z,1018.83
2022-11-27T14:26:43.384Z,1018.84
2022-11-27T14:27:44.503Z,1018.84
2022-11-27T14:28:43.329Z,1018.82
2022-11-27T14:29:43.501Z,1018.83
2022-11-27T14:30:44.313Z,1018.84
2022-11-27T14:31:42.998Z,1018.79
2022-11-27T14:32:43.856Z,1018.83
2022-11-27T14:34:07.361Z,1018.80
2022-11-27T14:34:43.112Z,1018.81
2022-11-27T14:35:43.310Z,1018.81
2022-11-27T14:36:42.508Z,1018.76
2022-11-27T14:37:42.045Z,1018.77
2022-11-27T14:38:44.587Z,1018.82
2022-11-27T14:39:45.874Z,1018.79
2022-11-27T14:40:42.872Z,1018.76
2022-11-27T14:41:41.758Z,1018.78
2022-11-27T14:42:43.945Z,1018.79
2022-11-27T14:43:42.577Z,1018.75
2022-11-27T14:44:44.411Z,1018.76
2022-11-27T14:45:41.802Z,1018.75
2022-11-27T14:46:42.977Z,1018.72
2022-11-27T14:47:42.551Z,1018.71
2022-11-27T14:48:41.815Z,1018.70
2022-11-27T14:49:43.701Z,1018.68
2022-11-27T14:50:42.738Z,1018.68
2022-11-27T14:51:44.160Z,1018.69
2022-11-27T14:52:42.115Z,1018.66
2022-11-27T14:53:42.068Z,1018.70
2022-11-27T14:54:42.801Z,1018.67
2022-11-27T14:55:41.493Z,1018.63
2022-11-27T14:56:43.467Z,1018.68
2022-11-27T14:57:41.803Z,1018.64
2022-11-27T14:58:41.759Z,1018.66
2022-11-27T14:59:42.022Z,1018.61
2022-11-27T15:00:47.973Z,1018.62
2022-11-27T15:01:44.756Z,1018.64
2022-11-27T15:02:42.606Z,1018.65
2022-11-27T15:03:43.909Z,1018.62
2022-11-27T15:04:43.780Z,1018.61
2022-11-27T15:05:42.583Z,1018.61
2022-11-27T15:06:42.206Z,1018.62
2022-11-27T15:07:48.009Z,1018.56
2022-11-27T15:08:43.024Z,1018.59
2022-11-27T15:09:42.206Z,1018.58
2022-11-27T15:10:44.777Z,1018.55
2022-11-27T15:11:55.690Z,1018.56
2022-11-27T15:12:43.204Z,1018.53
2022-11-27T15:13:42.103Z,1018.52
2022-11-27T15:14:49.661Z,1018.44
2022-11-27T15:15:43.380Z,1018.42
2022-11-27T15:16:42.355Z,1018.39
2022-11-27T15:17:42.616Z,1018.40
2022-11-27T15:18:41.734Z,1018.38
2022-11-27T15:19:42.727Z,1018.38
2022-11-27T15:20:45.719Z,1018.38
2022-11-27T15:21:41.759Z,1018.39
2022-11-27T15:22:42.328Z,1018.35
2022-11-27T15:23:43.927Z,1018.37
2022-11-27T15:24:41.288Z,1018.40
2022-11-27T15:25:42.429Z,1018.40
2022-11-27T15:26:43.839Z,1018.45
2022-11-27T15:27:43.107Z,1018.39
2022-11-27T15:28:41.610Z,1018.38
2022-11-27T15:29:43.824Z,1018.37
2022-11-27T15:30:45.793Z,1018.31
2022-11-27T15:31:45.219Z,1018.32
2022-11-27T15:32:42.110Z,1018.33
2022-11-27T15:33:43.996Z,1018.30
2022-11-27T15:34:42.680Z,1018.34
2022-11-27T15:35:44.837Z,1018.33
2022-11-27T15:36:43.930Z,1018.35
2022-11-27T15:37:42.290Z,1018.37
2022-11-27T15:38:41.890Z,1018.33
2022-11-27T15:39:47.102Z,1018.27
2022-11-27T15:40:42.196Z,1018.26
2022-11-27T15:41:43.669Z,1018.29
2022-11-27T15:43:30.465Z,1018.19
2022-11-27T15:44:28.871Z,1018.29
2022-11-27T15:45:29.948Z,1018.26
2022-11-27T15:46:28.290Z,1018.25
2022-11-27T15:47:28.605Z,1018.26
2022-11-27T15:48:28.388Z,1018.23
2022-11-27T15:49:29.366Z,1018.23
2022-11-27T15:50:29.017Z,1018.28
2022-11-27T15:51:28.260Z,1018.26
2022-11-27T15:52:28.275Z,1018.24
2022-11-27T15:53:28.117Z,1018.18
2022-11-27T15:54:28.130Z,1018.15
2022-11-27T15:55:28.145Z,1018.16
2022-11-27T15:56:28.111Z,1018.17
2022-11-27T15:57:27.940Z,1018.15
2022-11-27T15:58:29.258Z,1018.12
2022-11-27T15:59:27.953Z,1018.05
2022-11-27T16:00:28.323Z,1018.06
2022-11-27T16:01:27.973Z,1018.09
2022-11-27T16:02:28.102Z,1018.02
2022-11-27T16:03:28.018Z,1018.02
2022-11-27T16:04:27.949Z,1018.01
2022-11-27T16:05:29.067Z,1018.00
2022-11-27T16:06:27.842Z,1017.99
2022-11-27T16:07:27.991Z,1018.02
2022-11-27T16:08:27.849Z,1017.99
2022-11-27T16:09:27.914Z,1018.04
2022-11-27T16:10:27.963Z,1018.04
2022-11-27T16:11:29.354Z,1018.02
2022-11-27T16:12:28.235Z,1018.03
2022-11-27T16:13:27.749Z,1018.03
2022-11-27T16:14:27.820Z,1018.01
2022-11-27T16:15:32.752Z,1018.03
2022-11-27T16:16:28.909Z,1018.02
2022-11-27T16:17:27.721Z,1018.03
2022-11-27T16:18:27.819Z,1018.01
2022-11-27T16:19:27.743Z,1017.97
2022-11-27T16:20:27.922Z,1017.99
2022-11-27T16:21:29.677Z,1018.00
2022-11-27T16:22:27.677Z,1017.99
2022-11-27T16:23:27.750Z,1018.02
2022-11-27T16:24:27.812Z,1017.97
2022-11-27T16:25:27.839Z,1017.96
2022-11-27T16:26:27.626Z,1017.96
2022-11-27T16:27:27.609Z,1017.95
2022-11-27T16:28:27.665Z,1017.97
2022-11-27T16:29:27.563Z,1017.92
2022-11-27T16:30:29.949Z,1017.92
2022-11-27T16:34:11.353Z,1017.78
2022-11-27T16:35:13.850Z,1017.89
2022-11-27T16:36:11.824Z,1017.92
2022-11-27T16:37:17.033Z,1017.82
2022-11-27T16:38:15.376Z,1017.83
2022-11-27T16:39:12.768Z,1017.86
2022-11-27T16:40:14.920Z,1017.86
2022-11-27T16:41:13.088Z,1017.86
2022-11-27T16:42:11.620Z,1017.80
2022-11-27T16:43:12.172Z,1017.86
2022-11-27T16:44:12.533Z,1017.85
2022-11-27T16:45:11.996Z,1017.82
2022-11-27T16:46:17.706Z,1017.81
2022-11-27T16:47:16.419Z,1017.82
2022-11-27T16:48:17.256Z,1017.77
2022-11-27T16:49:19.719Z,1017.74
2022-11-27T16:50:16.052Z,1017.79
2022-11-27T16:51:17.204Z,1017.74
2022-11-27T16:52:18.427Z,1017.75
2022-11-27T16:53:19.199Z,1017.69
2022-11-27T16:54:18.756Z,1017.74
2022-11-27T16:55:18.971Z,1017.72
2022-11-27T16:56:18.528Z,1017.74
2022-11-27T16:57:19.777Z,1017.68
2022-11-27T16:58:19.925Z,1017.71
2022-11-27T16:59:17.961Z,1017.67
2022-11-27T17:00:14.290Z,1017.65
2022-11-27T17:01:17.157Z,1017.67
2022-11-27T17:02:14.411Z,1017.70